sensor_id;sensor_type;location;lat;lon;timestamp;P1;durP1;ratioP1;P2;durP2;ratioP2
27543;SDS011;17996;51.056;3.656;2023-03-01T00:01:22;31.30;;;15.80;;
27543;SDS011;17996;51.056;3.656;2023-03-01T00:03:50;40.83;;;24.90;;
27543;SDS011;17996;51.056;3.656;2023-03-01T00:06:17;41.95;;;24.40;;
27543;SDS011;17996;51.056;3.656;2023-03-01T00:08:43;31.90;;;19.50;;
27543;SDS011;17996;51.056;3.656;2023-03-01T00:11:13;103.10;;;43.40;;
27543;SDS011;17996;51.056;3.656;2023-03-01T00:13:42;34.22;;;15.23;;
27543;SDS011;17996;51.056;3.656;2023-03-01T00:16:09;33.45;;;17.90;;
27543;SDS011;17996;51.056;3.656;2023-03-01T00:18:37;21.92;;;12.70;;
27543;SDS011;17996;51.056;3.656;2023-03-01T00:21:03;15.60;;;11.40;;
27543;SDS011;17996;51.056;3.656;2023-03-01T00:23:30;16.23;;;11.75;;
27543;SDS011;17996;51.056;3.656;2023-03-01T00:25:56;17.13;;;10.70;;
27543;SDS011;17996;51.056;3.656;2023-03-01T00:28:21;18.23;;;11.73;;
27543;SDS011;17996;51.056;3.656;2023-03-01T00:30:47;19.30;;;11.80;;
27543;SDS011;17996;51.056;3.656;2023-03-01T00:33:13;15.48;;;10.93;;
27543;SDS011;17996;51.056;3.656;2023-03-01T00:35:38;17.27;;;12.43;;
27543;SDS011;17996;51.056;3.656;2023-03-01T00:38:04;21.77;;;12.98;;
27543;SDS011;17996;51.056;3.656;2023-03-01T00:40:31;26.08;;;14.57;;
27543;SDS011;17996;51.056;3.656;2023-03-01T00:42:58;19.40;;;12.75;;
27543;SDS011;17996;51.056;3.656;2023-03-01T00:45:24;22.63;;;11.63;;
27543;SDS011;17996;51.056;3.656;2023-03-01T00:47:50;15.25;;;11.10;;
27543;SDS011;17996;51.056;3.656;2023-03-01T00:50:17;19.70;;;12.38;;
27543;SDS011;17996;51.056;3.656;2023-03-01T00:52:43;20.10;;;11.88;;
27543;SDS011;17996;51.056;3.656;2023-03-01T00:55:09;15.63;;;12.45;;
27543;SDS011;17996;51.056;3.656;2023-03-01T00:57:35;19.33;;;11.40;;
27543;SDS011;17996;51.056;3.656;2023-03-01T01:00:01;17.60;;;10.38;;
27543;SDS011;17996;51.056;3.656;2023-03-01T01:02:29;18.27;;;12.43;;
27543;SDS011;17996;51.056;3.656;2023-03-01T01:04:55;18.50;;;12.95;;
27543;SDS011;17996;51.056;3.656;2023-03-01T01:07:20;20.17;;;12.93;;
27543;SDS011;17996;51.056;3.656;2023-03-01T01:09:46;22.42;;;14.15;;
27543;SDS011;17996;51.056;3.656;2023-03-01T01:12:11;20.25;;;13.00;;
27543;SDS011;17996;51.056;3.656;2023-03-01T01:14:37;19.00;;;13.10;;
27543;SDS011;17996;51.056;3.656;2023-03-01T01:17:03;23.70;;;12.57;;
27543;SDS011;17996;51.056;3.656;2023-03-01T01:19:29;19.55;;;12.75;;
27543;SDS011;17996;51.056;3.656;2023-03-01T01:21:55;21.55;;;12.38;;
27543;SDS011;17996;51.056;3.656;2023-03-01T01:24:20;22.05;;;12.88;;
27543;SDS011;17996;51.056;3.656;2023-03-01T01:26:46;19.77;;;13.85;;
27543;SDS011;17996;51.056;3.656;2023-03-01T01:29:12;18.63;;;13.02;;
27543;SDS011;17996;51.056;3.656;2023-03-01T01:31:38;25.27;;;13.65;;
27543;SDS011;17996;51.056;3.656;2023-03-01T01:34:06;21.58;;;12.70;;
27543;SDS011;17996;51.056;3.656;2023-03-01T01:36:33;20.48;;;12.60;;
27543;SDS011;17996;51.056;3.656;2023-03-01T01:38:59;17.80;;;13.20;;
27543;SDS011;17996;51.056;3.656;2023-03-01T01:41:26;18.35;;;13.10;;
27543;SDS011;17996;51.056;3.656;2023-03-01T01:52:14;19.67;;;13.45;;
27543;SDS011;17996;51.056;3.656;2023-03-01T01:55:25;21.15;;;14.80;;
27543;SDS011;17996;51.056;3.656;2023-03-01T02:05:15;21.15;;;13.45;;
27543;SDS011;17996;51.056;3.656;2023-03-01T02:07:43;24.67;;;14.63;;
27543;SDS011;17996;51.056;3.656;2023-03-01T02:10:10;22.23;;;14.30;;
27543;SDS011;17996;51.056;3.656;2023-03-01T02:12:35;22.60;;;14.32;;
27543;SDS011;17996;51.056;3.656;2023-03-01T02:15:02;22.77;;;14.07;;
27543;SDS011;17996;51.056;3.656;2023-03-01T02:17:28;22.90;;;15.20;;
27543;SDS011;17996;51.056;3.656;2023-03-01T02:22:46;22.30;;;15.15;;
27543;SDS011;17996;51.056;3.656;2023-03-01T02:28:01;25.02;;;15.02;;
27543;SDS011;17996;51.056;3.656;2023-03-01T02:30:33;26.83;;;15.13;;
27543;SDS011;17996;51.056;3.656;2023-03-01T02:32:59;23.48;;;15.10;;
27543;SDS011;17996;51.056;3.656;2023-03-01T02:35:31;21.05;;;14.88;;
27543;SDS011;17996;51.056;3.656;2023-03-01T02:38:03;22.83;;;15.27;;
27543;SDS011;17996;51.056;3.656;2023-03-01T02:42:59;25.85;;;15.25;;
27543;SDS011;17996;51.056;3.656;2023-03-01T02:45:25;25.70;;;15.82;;
27543;SDS011;17996;51.056;3.656;2023-03-01T02:47:54;25.52;;;16.55;;
27543;SDS011;17996;51.056;3.656;2023-03-01T02:55:21;26.03;;;17.80;;
27543;SDS011;17996;51.056;3.656;2023-03-01T02:57:47;26.35;;;16.95;;
27543;SDS011;17996;51.056;3.656;2023-03-01T03:00:29;27.65;;;18.77;;
27543;SDS011;17996;51.056;3.656;2023-03-01T03:03:00;28.55;;;18.80;;
27543;SDS011;17996;51.056;3.656;2023-03-01T03:05:27;29.88;;;18.02;;
27543;SDS011;17996;51.056;3.656;2023-03-01T03:07:55;27.42;;;18.25;;
27543;SDS011;17996;51.056;3.656;2023-03-01T03:10:28;32.67;;;19.83;;
27543;SDS011;17996;51.056;3.656;2023-03-01T03:12:57;32.83;;;18.95;;
27543;SDS011;17996;51.056;3.656;2023-03-01T03:15:25;31.85;;;19.75;;
27543;SDS011;17996;51.056;3.656;2023-03-01T03:17:52;28.80;;;19.83;;
27543;SDS011;17996;51.056;3.656;2023-03-01T03:20:19;33.30;;;20.60;;
27543;SDS011;17996;51.056;3.656;2023-03-01T03:22:48;36.30;;;21.50;;
27543;SDS011;17996;51.056;3.656;2023-03-01T03:25:15;25.25;;;16.83;;
27543;SDS011;17996;51.056;3.656;2023-03-01T03:27:43;36.95;;;21.83;;
27543;SDS011;17996;51.056;3.656;2023-03-01T03:30:11;35.88;;;22.45;;
27543;SDS011;17996;51.056;3.656;2023-03-01T03:32:40;35.03;;;22.52;;
27543;SDS011;17996;51.056;3.656;2023-03-01T03:35:08;35.70;;;21.60;;
27543;SDS011;17996;51.056;3.656;2023-03-01T03:37:38;37.05;;;22.30;;
27543;SDS011;17996;51.056;3.656;2023-03-01T03:40:23;40.13;;;23.03;;
27543;SDS011;17996;51.056;3.656;2023-03-01T03:42:49;42.45;;;23.13;;
27543;SDS011;17996;51.056;3.656;2023-03-01T03:45:17;38.75;;;22.90;;
27543;SDS011;17996;51.056;3.656;2023-03-01T03:47:44;38.15;;;23.73;;
27543;SDS011;17996;51.056;3.656;2023-03-01T03:50:10;39.25;;;22.80;;
27543;SDS011;17996;51.056;3.656;2023-03-01T03:52:37;51.60;;;22.88;;
27543;SDS011;17996;51.056;3.656;2023-03-01T03:55:04;31.65;;;21.13;;
27543;SDS011;17996;51.056;3.656;2023-03-01T03:57:42;38.55;;;23.10;;
27543;SDS011;17996;51.056;3.656;2023-03-01T04:00:08;35.88;;;22.52;;
27543;SDS011;17996;51.056;3.656;2023-03-01T04:02:41;37.20;;;23.50;;
27543;SDS011;17996;51.056;3.656;2023-03-01T04:05:08;38.03;;;23.10;;
27543;SDS011;17996;51.056;3.656;2023-03-01T04:07:35;36.13;;;22.13;;
27543;SDS011;17996;51.056;3.656;2023-03-01T04:10:05;39.88;;;24.50;;
27543;SDS011;17996;51.056;3.656;2023-03-01T04:12:33;36.92;;;22.08;;
27543;SDS011;17996;51.056;3.656;2023-03-01T04:15:00;41.10;;;22.98;;
27543;SDS011;17996;51.056;3.656;2023-03-01T04:17:26;35.65;;;22.75;;
27543;SDS011;17996;51.056;3.656;2023-03-01T04:19:52;36.78;;;23.35;;
27543;SDS011;17996;51.056;3.656;2023-03-01T04:22:18;40.33;;;23.95;;
27543;SDS011;17996;51.056;3.656;2023-03-01T04:24:44;34.33;;;22.55;;
27543;SDS011;17996;51.056;3.656;2023-03-01T04:27:10;36.65;;;22.33;;
27543;SDS011;17996;51.056;3.656;2023-03-01T04:29:36;35.33;;;22.77;;
27543;SDS011;17996;51.056;3.656;2023-03-01T04:32:02;35.53;;;22.80;;
27543;SDS011;17996;51.056;3.656;2023-03-01T04:34:28;42.35;;;22.83;;
27543;SDS011;17996;51.056;3.656;2023-03-01T04:36:55;38.42;;;22.13;;
27543;SDS011;17996;51.056;3.656;2023-03-01T04:39:21;36.58;;;22.08;;
27543;SDS011;17996;51.056;3.656;2023-03-01T04:41:46;37.90;;;21.15;;
27543;SDS011;17996;51.056;3.656;2023-03-01T04:44:12;37.90;;;22.83;;
27543;SDS011;17996;51.056;3.656;2023-03-01T04:46:38;36.70;;;22.25;;
27543;SDS011;17996;51.056;3.656;2023-03-01T04:49:04;37.38;;;20.48;;
27543;SDS011;17996;51.056;3.656;2023-03-01T04:51:30;29.67;;;20.52;;
27543;SDS011;17996;51.056;3.656;2023-03-01T04:53:57;43.22;;;22.90;;
27543;SDS011;17996;51.056;3.656;2023-03-01T04:56:25;34.17;;;20.77;;
27543;SDS011;17996;51.056;3.656;2023-03-01T04:58:52;34.10;;;22.23;;
27543;SDS011;17996;51.056;3.656;2023-03-01T05:01:19;37.22;;;21.98;;
27543;SDS011;17996;51.056;3.656;2023-03-01T05:03:49;33.22;;;20.52;;
27543;SDS011;17996;51.056;3.656;2023-03-01T05:06:16;35.28;;;20.90;;
27543;SDS011;17996;51.056;3.656;2023-03-01T05:08:43;37.67;;;21.13;;
27543;SDS011;17996;51.056;3.656;2023-03-01T05:11:10;40.50;;;21.40;;
27543;SDS011;17996;51.056;3.656;2023-03-01T05:13:36;31.98;;;21.08;;
27543;SDS011;17996;51.056;3.656;2023-03-01T05:16:03;38.63;;;20.23;;
27543;SDS011;17996;51.056;3.656;2023-03-01T05:18:31;37.38;;;22.05;;
27543;SDS011;17996;51.056;3.656;2023-03-01T05:21:08;30.58;;;19.70;;
27543;SDS011;17996;51.056;3.656;2023-03-01T05:23:36;34.20;;;20.80;;
27543;SDS011;17996;51.056;3.656;2023-03-01T05:26:02;35.15;;;20.92;;
27543;SDS011;17996;51.056;3.656;2023-03-01T05:28:29;41.85;;;22.42;;
27543;SDS011;17996;51.056;3.656;2023-03-01T05:30:56;34.13;;;20.42;;
27543;SDS011;17996;51.056;3.656;2023-03-01T05:33:22;35.17;;;21.17;;
27543;SDS011;17996;51.056;3.656;2023-03-01T05:35:49;38.78;;;21.27;;
27543;SDS011;17996;51.056;3.656;2023-03-01T05:38:16;30.80;;;19.60;;
27543;SDS011;17996;51.056;3.656;2023-03-01T05:40:42;33.05;;;20.17;;
27543;SDS011;17996;51.056;3.656;2023-03-01T05:43:09;34.50;;;19.10;;
27543;SDS011;17996;51.056;3.656;2023-03-01T05:45:37;30.42;;;19.85;;
27543;SDS011;17996;51.056;3.656;2023-03-01T05:48:03;32.65;;;21.00;;
27543;SDS011;17996;51.056;3.656;2023-03-01T05:50:32;31.33;;;19.70;;
27543;SDS011;17996;51.056;3.656;2023-03-01T05:53:01;33.38;;;18.38;;
27543;SDS011;17996;51.056;3.656;2023-03-01T05:55:32;31.85;;;20.13;;
27543;SDS011;17996;51.056;3.656;2023-03-01T05:58:00;32.10;;;19.80;;
27543;SDS011;17996;51.056;3.656;2023-03-01T06:00:26;34.60;;;20.58;;
27543;SDS011;17996;51.056;3.656;2023-03-01T06:02:54;32.15;;;20.85;;
27543;SDS011;17996;51.056;3.656;2023-03-01T06:05:20;30.42;;;20.60;;
27543;SDS011;17996;51.056;3.656;2023-03-01T06:07:47;33.25;;;20.33;;
27543;SDS011;17996;51.056;3.656;2023-03-01T06:10:13;35.22;;;21.75;;
27543;SDS011;17996;51.056;3.656;2023-03-01T06:12:40;32.58;;;20.15;;
27543;SDS011;17996;51.056;3.656;2023-03-01T06:15:07;34.10;;;20.20;;
27543;SDS011;17996;51.056;3.656;2023-03-01T06:17:37;39.33;;;20.75;;
27543;SDS011;17996;51.056;3.656;2023-03-01T06:20:06;31.98;;;19.42;;
27543;SDS011;17996;51.056;3.656;2023-03-01T06:22:58;34.85;;;20.13;;
27543;SDS011;17996;51.056;3.656;2023-03-01T06:25:25;30.85;;;19.60;;
27543;SDS011;17996;51.056;3.656;2023-03-01T06:27:51;33.65;;;20.70;;
27543;SDS011;17996;51.056;3.656;2023-03-01T06:30:18;36.05;;;20.33;;
27543;SDS011;17996;51.056;3.656;2023-03-01T06:32:45;35.63;;;20.88;;
27543;SDS011;17996;51.056;3.656;2023-03-01T06:35:11;35.85;;;20.70;;
27543;SDS011;17996;51.056;3.656;2023-03-01T06:37:38;31.23;;;19.13;;
27543;SDS011;17996;51.056;3.656;2023-03-01T06:40:04;31.65;;;19.77;;
27543;SDS011;17996;51.056;3.656;2023-03-01T06:42:36;30.67;;;19.98;;
27543;SDS011;17996;51.056;3.656;2023-03-01T06:45:03;38.00;;;20.85;;
27543;SDS011;17996;51.056;3.656;2023-03-01T06:47:29;33.05;;;21.00;;
27543;SDS011;17996;51.056;3.656;2023-03-01T06:49:55;35.03;;;20.27;;
27543;SDS011;17996;51.056;3.656;2023-03-01T06:52:21;33.92;;;18.95;;
27543;SDS011;17996;51.056;3.656;2023-03-01T06:54:47;31.85;;;18.35;;
27543;SDS011;17996;51.056;3.656;2023-03-01T06:57:12;33.15;;;19.15;;
27543;SDS011;17996;51.056;3.656;2023-03-01T06:59:38;31.20;;;18.55;;
27543;SDS011;17996;51.056;3.656;2023-03-01T07:02:04;32.40;;;19.70;;
27543;SDS011;17996;51.056;3.656;2023-03-01T07:04:29;33.28;;;19.42;;
27543;SDS011;17996;51.056;3.656;2023-03-01T07:06:55;36.05;;;20.48;;
27543;SDS011;17996;51.056;3.656;2023-03-01T07:09:22;37.55;;;20.50;;
27543;SDS011;17996;51.056;3.656;2023-03-01T07:11:48;35.33;;;20.30;;
27543;SDS011;17996;51.056;3.656;2023-03-01T07:14:14;43.05;;;22.60;;
27543;SDS011;17996;51.056;3.656;2023-03-01T07:16:40;38.50;;;22.42;;
27543;SDS011;17996;51.056;3.656;2023-03-01T07:19:06;35.40;;;21.45;;
27543;SDS011;17996;51.056;3.656;2023-03-01T07:21:32;35.13;;;21.70;;
27543;SDS011;17996;51.056;3.656;2023-03-01T07:23:57;38.83;;;21.58;;
27543;SDS011;17996;51.056;3.656;2023-03-01T07:26:23;36.10;;;22.92;;
27543;SDS011;17996;51.056;3.656;2023-03-01T07:28:49;36.75;;;21.00;;
27543;SDS011;17996;51.056;3.656;2023-03-01T07:31:14;36.88;;;20.65;;
27543;SDS011;17996;51.056;3.656;2023-03-01T07:33:40;37.60;;;21.40;;
27543;SDS011;17996;51.056;3.656;2023-03-01T07:36:06;36.78;;;19.98;;
27543;SDS011;17996;51.056;3.656;2023-03-01T07:38:32;33.85;;;20.80;;
27543;SDS011;17996;51.056;3.656;2023-03-01T07:40:59;32.55;;;19.33;;
27543;SDS011;17996;51.056;3.656;2023-03-01T07:43:26;36.00;;;19.53;;
27543;SDS011;17996;51.056;3.656;2023-03-01T07:45:53;35.38;;;17.65;;
27543;SDS011;17996;51.056;3.656;2023-03-01T07:48:19;30.33;;;17.73;;
27543;SDS011;17996;51.056;3.656;2023-03-01T07:50:44;30.80;;;16.48;;
27543;SDS011;17996;51.056;3.656;2023-03-01T07:53:10;27.42;;;16.33;;
27543;SDS011;17996;51.056;3.656;2023-03-01T07:55:36;27.40;;;14.65;;
27543;SDS011;17996;51.056;3.656;2023-03-01T07:58:02;38.45;;;15.38;;
27543;SDS011;17996;51.056;3.656;2023-03-01T08:00:28;27.50;;;14.95;;
27543;SDS011;17996;51.056;3.656;2023-03-01T08:02:54;28.73;;;15.60;;
27543;SDS011;17996;51.056;3.656;2023-03-01T08:05:19;27.77;;;17.35;;
27543;SDS011;17996;51.056;3.656;2023-03-01T08:07:47;31.55;;;17.77;;
27543;SDS011;17996;51.056;3.656;2023-03-01T08:10:13;34.22;;;18.33;;
27543;SDS011;17996;51.056;3.656;2023-03-01T08:12:38;34.40;;;17.60;;
27543;SDS011;17996;51.056;3.656;2023-03-01T08:15:04;38.53;;;18.67;;
27543;SDS011;17996;51.056;3.656;2023-03-01T08:17:30;27.63;;;17.27;;
27543;SDS011;17996;51.056;3.656;2023-03-01T08:19:56;30.38;;;14.80;;
27543;SDS011;17996;51.056;3.656;2023-03-01T08:22:21;26.48;;;12.40;;
27543;SDS011;17996;51.056;3.656;2023-03-01T08:24:47;20.35;;;11.68;;
27543;SDS011;17996;51.056;3.656;2023-03-01T08:27:14;18.75;;;10.80;;
27543;SDS011;17996;51.056;3.656;2023-03-01T08:29:40;18.60;;;10.88;;
27543;SDS011;17996;51.056;3.656;2023-03-01T08:32:06;21.55;;;11.02;;
27543;SDS011;17996;51.056;3.656;2023-03-01T08:34:31;20.15;;;11.93;;
27543;SDS011;17996;51.056;3.656;2023-03-01T08:36:57;22.38;;;11.13;;
27543;SDS011;17996;51.056;3.656;2023-03-01T08:39:23;20.70;;;10.73;;
27543;SDS011;17996;51.056;3.656;2023-03-01T08:41:49;16.90;;;10.50;;
27543;SDS011;17996;51.056;3.656;2023-03-01T08:44:14;20.60;;;11.27;;
27543;SDS011;17996;51.056;3.656;2023-03-01T08:46:42;19.95;;;10.93;;
27543;SDS011;17996;51.056;3.656;2023-03-01T08:49:11;19.23;;;11.25;;
27543;SDS011;17996;51.056;3.656;2023-03-01T08:51:42;20.73;;;11.48;;
27543;SDS011;17996;51.056;3.656;2023-03-01T08:54:10;23.05;;;11.90;;
27543;SDS011;17996;51.056;3.656;2023-03-01T08:56:37;23.92;;;11.02;;
27543;SDS011;17996;51.056;3.656;2023-03-01T08:59:04;18.52;;;11.07;;
27543;SDS011;17996;51.056;3.656;2023-03-01T09:01:29;19.35;;;11.10;;
27543;SDS011;17996;51.056;3.656;2023-03-01T09:03:55;20.60;;;11.45;;
27543;SDS011;17996;51.056;3.656;2023-03-01T09:06:21;19.20;;;11.30;;
27543;SDS011;17996;51.056;3.656;2023-03-01T09:08:48;22.98;;;10.50;;
27543;SDS011;17996;51.056;3.656;2023-03-01T09:11:16;27.65;;;11.55;;
27543;SDS011;17996;51.056;3.656;2023-03-01T09:16:11;18.70;;;10.70;;
27543;SDS011;17996;51.056;3.656;2023-03-01T09:18:38;22.92;;;10.45;;
27543;SDS011;17996;51.056;3.656;2023-03-01T09:21:22;14.60;;;10.45;;
27543;SDS011;17996;51.056;3.656;2023-03-01T09:23:48;15.80;;;10.27;;
27543;SDS011;17996;51.056;3.656;2023-03-01T09:26:15;14.90;;;9.35;;
27543;SDS011;17996;51.056;3.656;2023-03-01T09:28:44;23.63;;;11.85;;
27543;SDS011;17996;51.056;3.656;2023-03-01T09:31:11;20.38;;;10.57;;
27543;SDS011;17996;51.056;3.656;2023-03-01T09:33:38;21.40;;;10.85;;
27543;SDS011;17996;51.056;3.656;2023-03-01T09:36:05;17.40;;;10.35;;
27543;SDS011;17996;51.056;3.656;2023-03-01T09:38:33;17.67;;;10.63;;
27543;SDS011;17996;51.056;3.656;2023-03-01T09:40:59;17.75;;;10.40;;
27543;SDS011;17996;51.056;3.656;2023-03-01T09:46:12;18.77;;;10.68;;
27543;SDS011;17996;51.056;3.656;2023-03-01T09:48:43;17.38;;;10.30;;
27543;SDS011;17996;51.056;3.656;2023-03-01T09:51:19;18.02;;;10.10;;
27543;SDS011;17996;51.056;3.656;2023-03-01T09:53:51;18.80;;;10.70;;
27543;SDS011;17996;51.056;3.656;2023-03-01T09:56:20;15.77;;;10.45;;
27543;SDS011;17996;51.056;3.656;2023-03-01T10:09:36;17.93;;;9.30;;
27543;SDS011;17996;51.056;3.656;2023-03-01T10:12:11;19.52;;;9.77;;
27543;SDS011;17996;51.056;3.656;2023-03-01T10:14:48;15.07;;;9.57;;
27543;SDS011;17996;51.056;3.656;2023-03-01T10:20:20;18.23;;;10.13;;
27543;SDS011;17996;51.056;3.656;2023-03-01T10:22:46;13.45;;;8.30;;
27543;SDS011;17996;51.056;3.656;2023-03-01T10:25:15;15.50;;;9.50;;
27543;SDS011;17996;51.056;3.656;2023-03-01T10:28:02;18.33;;;8.93;;
27543;SDS011;17996;51.056;3.656;2023-03-01T10:30:36;18.60;;;9.90;;
27543;SDS011;17996;51.056;3.656;2023-03-01T10:33:23;20.63;;;9.25;;
27543;SDS011;17996;51.056;3.656;2023-03-01T10:35:49;14.57;;;9.13;;
27543;SDS011;17996;51.056;3.656;2023-03-01T10:38:15;14.95;;;8.80;;
27543;SDS011;17996;51.056;3.656;2023-03-01T10:40:55;18.92;;;9.75;;
27543;SDS011;17996;51.056;3.656;2023-03-01T10:43:23;11.65;;;8.35;;
27543;SDS011;17996;51.056;3.656;2023-03-01T10:45:50;16.83;;;9.57;;
27543;SDS011;17996;51.056;3.656;2023-03-01T10:50:46;13.68;;;9.98;;
27543;SDS011;17996;51.056;3.656;2023-03-01T10:53:21;17.52;;;10.65;;
27543;SDS011;17996;51.056;3.656;2023-03-01T10:55:56;16.35;;;10.20;;
27543;SDS011;17996;51.056;3.656;2023-03-01T10:58:26;20.48;;;10.93;;
27543;SDS011;17996;51.056;3.656;2023-03-01T11:00:54;16.25;;;10.00;;
27543;SDS011;17996;51.056;3.656;2023-03-01T11:03:29;14.55;;;8.00;;
27543;SDS011;17996;51.056;3.656;2023-03-01T11:08:44;18.17;;;9.63;;
27543;SDS011;17996;51.056;3.656;2023-03-01T11:16:29;11.45;;;7.68;;
27543;SDS011;17996;51.056;3.656;2023-03-01T11:19:04;15.40;;;7.70;;
27543;SDS011;17996;51.056;3.656;2023-03-01T11:21:47;13.75;;;7.53;;
27543;SDS011;17996;51.056;3.656;2023-03-01T11:24:33;13.23;;;8.10;;
27543;SDS011;17996;51.056;3.656;2023-03-01T11:27:30;12.63;;;7.15;;
27543;SDS011;17996;51.056;3.656;2023-03-01T11:32:42;14.93;;;7.55;;
27543;SDS011;17996;51.056;3.656;2023-03-01T11:41:04;15.15;;;7.55;;
27543;SDS011;17996;51.056;3.656;2023-03-01T11:51:46;10.05;;;7.07;;
27543;SDS011;17996;51.056;3.656;2023-03-01T12:02:56;15.95;;;8.23;;
27543;SDS011;17996;51.056;3.656;2023-03-01T12:08:35;11.57;;;7.32;;
27543;SDS011;17996;51.056;3.656;2023-03-01T12:13:55;12.03;;;7.80;;
27543;SDS011;17996;51.056;3.656;2023-03-01T12:35:42;13.95;;;7.95;;
27543;SDS011;17996;51.056;3.656;2023-03-01T12:51:06;23.25;;;7.75;;
27543;SDS011;17996;51.056;3.656;2023-03-01T12:53:39;13.15;;;8.40;;
27543;SDS011;17996;51.056;3.656;2023-03-01T12:56:09;13.55;;;7.50;;
27543;SDS011;17996;51.056;3.656;2023-03-01T13:01:40;15.38;;;7.82;;
27543;SDS011;17996;51.056;3.656;2023-03-01T13:04:35;16.73;;;7.60;;
27543;SDS011;17996;51.056;3.656;2023-03-01T13:07:13;9.50;;;7.07;;
27543;SDS011;17996;51.056;3.656;2023-03-01T13:12:45;13.38;;;7.57;;
27543;SDS011;17996;51.056;3.656;2023-03-01T13:20:18;12.65;;;7.93;;
27543;SDS011;17996;51.056;3.656;2023-03-01T13:22:46;12.15;;;7.85;;
27543;SDS011;17996;51.056;3.656;2023-03-01T13:25:14;13.07;;;8.05;;
27543;SDS011;17996;51.056;3.656;2023-03-01T13:27:42;14.10;;;8.30;;
27543;SDS011;17996;51.056;3.656;2023-03-01T13:30:37;13.05;;;8.60;;
27543;SDS011;17996;51.056;3.656;2023-03-01T13:34:06;15.15;;;8.65;;
27543;SDS011;17996;51.056;3.656;2023-03-01T13:36:07;15.73;;;8.57;;
27543;SDS011;17996;51.056;3.656;2023-03-01T13:41:11;14.30;;;7.88;;
27543;SDS011;17996;51.056;3.656;2023-03-01T13:46:52;17.55;;;8.73;;
27543;SDS011;17996;51.056;3.656;2023-03-01T13:49:23;18.90;;;9.57;;
27543;SDS011;17996;51.056;3.656;2023-03-01T13:51:52;15.20;;;8.85;;
27543;SDS011;17996;51.056;3.656;2023-03-01T13:54:23;16.88;;;8.50;;
27543;SDS011;17996;51.056;3.656;2023-03-01T13:56:55;10.63;;;7.60;;
27543;SDS011;17996;51.056;3.656;2023-03-01T13:59:23;16.80;;;7.80;;
27543;SDS011;17996;51.056;3.656;2023-03-01T14:01:58;14.98;;;8.98;;
27543;SDS011;17996;51.056;3.656;2023-03-01T14:04:28;13.98;;;8.90;;
27543;SDS011;17996;51.056;3.656;2023-03-01T14:07:18;22.52;;;10.80;;
27543;SDS011;17996;51.056;3.656;2023-03-01T14:09:47;18.73;;;8.57;;
27543;SDS011;17996;51.056;3.656;2023-03-01T14:20:41;19.15;;;9.23;;
27543;SDS011;17996;51.056;3.656;2023-03-01T14:23:13;13.77;;;8.38;;
27543;SDS011;17996;51.056;3.656;2023-03-01T14:25:46;15.80;;;7.82;;
27543;SDS011;17996;51.056;3.656;2023-03-01T14:30:43;15.70;;;8.73;;
27543;SDS011;17996;51.056;3.656;2023-03-01T14:33:24;14.32;;;8.85;;
27543;SDS011;17996;51.056;3.656;2023-03-01T14:39:00;22.83;;;8.37;;
27543;SDS011;17996;51.056;3.656;2023-03-01T14:41:09;15.25;;;7.65;;
27543;SDS011;17996;51.056;3.656;2023-03-01T14:43:38;16.10;;;7.95;;
27543;SDS011;17996;51.056;3.656;2023-03-01T14:46:16;19.10;;;10.15;;
27543;SDS011;17996;51.056;3.656;2023-03-01T14:48:48;17.30;;;8.75;;
27543;SDS011;17996;51.056;3.656;2023-03-01T14:51:16;15.27;;;8.48;;
27543;SDS011;17996;51.056;3.656;2023-03-01T14:53:41;15.95;;;8.02;;
27543;SDS011;17996;51.056;3.656;2023-03-01T14:56:12;13.73;;;8.52;;
27543;SDS011;17996;51.056;3.656;2023-03-01T14:58:39;14.90;;;8.60;;
27543;SDS011;17996;51.056;3.656;2023-03-01T15:01:05;16.95;;;9.43;;
27543;SDS011;17996;51.056;3.656;2023-03-01T15:03:36;17.73;;;9.50;;
27543;SDS011;17996;51.056;3.656;2023-03-01T15:06:07;14.52;;;8.75;;
27543;SDS011;17996;51.056;3.656;2023-03-01T15:08:34;16.15;;;7.20;;
27543;SDS011;17996;51.056;3.656;2023-03-01T15:13:48;22.17;;;8.45;;
27543;SDS011;17996;51.056;3.656;2023-03-01T15:16:15;18.10;;;8.82;;
27543;SDS011;17996;51.056;3.656;2023-03-01T15:18:46;22.58;;;10.48;;
27543;SDS011;17996;51.056;3.656;2023-03-01T15:21:16;15.02;;;8.50;;
27543;SDS011;17996;51.056;3.656;2023-03-01T15:23:52;18.80;;;9.55;;
27543;SDS011;17996;51.056;3.656;2023-03-01T15:26:24;14.60;;;9.07;;
27543;SDS011;17996;51.056;3.656;2023-03-01T15:29:20;16.75;;;9.23;;
27543;SDS011;17996;51.056;3.656;2023-03-01T15:31:58;13.45;;;8.20;;
27543;SDS011;17996;51.056;3.656;2023-03-01T15:34:35;15.20;;;8.55;;
27543;SDS011;17996;51.056;3.656;2023-03-01T15:37:02;14.00;;;8.25;;
27543;SDS011;17996;51.056;3.656;2023-03-01T15:39:35;12.40;;;8.05;;
27543;SDS011;17996;51.056;3.656;2023-03-01T15:44:48;12.80;;;8.23;;
27543;SDS011;17996;51.056;3.656;2023-03-01T15:47:27;11.60;;;7.63;;
27543;SDS011;17996;51.056;3.656;2023-03-01T15:49:55;12.57;;;8.30;;
27543;SDS011;17996;51.056;3.656;2023-03-01T15:54:57;13.07;;;8.75;;
27543;SDS011;17996;51.056;3.656;2023-03-01T15:57:30;13.25;;;8.93;;
27543;SDS011;17996;51.056;3.656;2023-03-01T15:59:56;16.38;;;8.35;;
27543;SDS011;17996;51.056;3.656;2023-03-01T16:02:22;16.75;;;8.50;;
27543;SDS011;17996;51.056;3.656;2023-03-01T16:04:49;18.35;;;8.52;;
27543;SDS011;17996;51.056;3.656;2023-03-01T16:07:16;14.15;;;8.07;;
27543;SDS011;17996;51.056;3.656;2023-03-01T16:09:42;11.77;;;8.13;;
27543;SDS011;17996;51.056;3.656;2023-03-01T16:12:17;17.33;;;8.27;;
27543;SDS011;17996;51.056;3.656;2023-03-01T16:14:45;12.30;;;8.30;;
27543;SDS011;17996;51.056;3.656;2023-03-01T16:17:11;15.10;;;8.38;;
27543;SDS011;17996;51.056;3.656;2023-03-01T16:19:37;12.73;;;8.25;;
27543;SDS011;17996;51.056;3.656;2023-03-01T16:22:04;15.93;;;8.68;;
27543;SDS011;17996;51.056;3.656;2023-03-01T16:24:29;14.93;;;9.82;;
27543;SDS011;17996;51.056;3.656;2023-03-01T16:26:55;11.73;;;9.45;;
27543;SDS011;17996;51.056;3.656;2023-03-01T16:29:21;19.08;;;8.82;;
27543;SDS011;17996;51.056;3.656;2023-03-01T16:31:47;23.77;;;10.45;;
27543;SDS011;17996;51.056;3.656;2023-03-01T16:34:12;17.10;;;8.80;;
27543;SDS011;17996;51.056;3.656;2023-03-01T16:36:38;18.67;;;9.07;;
27543;SDS011;17996;51.056;3.656;2023-03-01T16:39:04;15.15;;;9.00;;
27543;SDS011;17996;51.056;3.656;2023-03-01T16:41:31;21.92;;;10.20;;
27543;SDS011;17996;51.056;3.656;2023-03-01T16:43:56;16.88;;;10.20;;
27543;SDS011;17996;51.056;3.656;2023-03-01T16:46:23;17.95;;;10.73;;
27543;SDS011;17996;51.056;3.656;2023-03-01T16:48:51;17.42;;;10.07;;
27543;SDS011;17996;51.056;3.656;2023-03-01T16:51:17;15.20;;;10.05;;
27543;SDS011;17996;51.056;3.656;2023-03-01T16:53:44;16.50;;;8.88;;
27543;SDS011;17996;51.056;3.656;2023-03-01T16:56:10;19.75;;;9.43;;
27543;SDS011;17996;51.056;3.656;2023-03-01T16:58:37;24.65;;;10.00;;
27543;SDS011;17996;51.056;3.656;2023-03-01T17:01:07;18.45;;;9.90;;
27543;SDS011;17996;51.056;3.656;2023-03-01T17:03:35;19.80;;;10.30;;
27543;SDS011;17996;51.056;3.656;2023-03-01T17:06:05;16.02;;;9.07;;
27543;SDS011;17996;51.056;3.656;2023-03-01T17:08:33;14.55;;;9.55;;
27543;SDS011;17996;51.056;3.656;2023-03-01T17:11:10;17.30;;;8.85;;
27543;SDS011;17996;51.056;3.656;2023-03-01T17:13:40;14.82;;;10.07;;
27543;SDS011;17996;51.056;3.656;2023-03-01T17:16:08;35.63;;;17.92;;